Time;durP1;ratioP1;P1;durP2;ratioP2;P2;SDS_P1;SDS_P2;PMS_P1;PMS_P2;Temp;Humidity;BMP_temperature;BMP_pressure;BME280_temperature;BME280_humidity;BME280_pressure;Samples;Min_cycle;Max_cycle;Signal;HPM_P1;HPM_P2
2023/01/06 00:01:16;;;;;;;;;;;;;;;8.63;83.44;98594.66;4983801;28;19933;-62
2023/01/06 00:03:48;;;;;;;;;;;;;;;8.57;83.49;98593.84;4970382;28;20646;-62
2023/01/06 00:06:15;;;;;;;;;;;;;;;8.63;83.23;98589.25;4954527;28;19948;-62
2023/01/06 00:08:44;;;;;;;;;;;;;;;8.62;83.40;98582.97;4973055;28;19936;-62
2023/01/06 00:11:13;;;;;;;;;;;;;;;8.62;83.37;98587.59;4972299;28;19926;-62
2023/01/06 00:13:41;;;;;;;;;;;;;;;8.52;83.74;98579.53;4968073;28;20268;-67
2023/01/06 00:16:13;;;;;;;;;;;;;;;8.51;83.98;98573.31;4972200;28;19926;-63
2023/01/06 00:18:43;;;;;;;;;;;;;;;8.57;83.78;98577.59;4971320;28;19938;-62
2023/01/06 00:21:11;;;;;;;;;;;;;;;8.62;83.74;98568.63;4971840;28;19981;-62
2023/01/06 00:23:39;;;;;;;;;;;;;;;8.59;83.81;98577.34;4971766;28;19926;-62
2023/01/06 00:26:07;;;;;;;;;;;;;;;8.62;83.79;98568.63;4971364;28;19930;-62
2023/01/06 00:28:36;;;;;;;;;;;;;;;8.64;83.71;98566.47;4968447;28;19938;-65
2023/01/06 00:31:05;;;;;;;;;;;;;;;8.66;83.29;98565.09;4954038;28;20000;-63
2023/01/06 00:33:33;;;;;;;;;;;;;;;8.68;83.45;98550.44;4952171;28;19926;-62
2023/01/06 00:36:06;;;;;;;;;;;;;;;8.62;83.72;98560.50;4963145;28;19980;-62
2023/01/06 00:38:36;;;;;;;;;;;;;;;8.61;83.50;98562.41;4953746;28;19958;-66
2023/01/06 00:42:02;;;;;;;;;;;;;;;8.66;83.59;98553.44;4950556;28;19937;-63
2023/01/06 00:43:53;;;;;;;;;;;;;;;8.64;83.65;98561.84;4970496;28;19965;-62
2023/01/06 00:46:22;;;;;;;;;;;;;;;8.63;83.99;98560.25;4955046;28;19933;-62
2023/01/06 00:51:46;;;;;;;;;;;;;;;8.67;83.68;98560.47;4966495;28;19926;-61
2023/01/06 00:54:14;;;;;;;;;;;;;;;8.74;83.66;98560.97;4952587;28;20414;-62
2023/01/06 00:56:43;;;;;;;;;;;;;;;8.65;83.69;98568.09;4953558;28;19933;-62
2023/01/06 00:59:12;;;;;;;;;;;;;;;8.64;83.90;98569.19;4972411;28;19972;-65
2023/01/06 01:04:33;;;;;;;;;;;;;;;8.70;83.89;98564.53;4961146;28;19968;-62
2023/01/06 01:07:02;;;;;;;;;;;;;;;8.72;83.63;98563.13;4988942;28;19932;-63
2023/01/06 01:09:31;;;;;;;;;;;;;;;8.69;83.70;98558.31;4990423;28;19940;-64
2023/01/06 01:12:11;;;;;;;;;;;;;;;8.66;83.72;98554.25;4990584;28;20375;-63
2023/01/06 01:14:45;;;;;;;;;;;;;;;8.63;83.87;98562.16;4989164;28;20310;-61
2023/01/06 01:17:14;;;;;;;;;;;;;;;8.67;83.78;98560.47;4990791;28;19932;-61
2023/01/06 01:19:44;;;;;;;;;;;;;;;8.65;83.69;98551.84;4966084;28;20404;-61
2023/01/06 01:22:13;;;;;;;;;;;;;;;8.59;83.79;98555.69;4972998;28;20383;-61
2023/01/06 01:24:41;;;;;;;;;;;;;;;8.60;84.07;98560.00;4971562;28;19926;-61
2023/01/06 01:27:13;;;;;;;;;;;;;;;8.58;83.98;98557.56;4991751;28;20272;-61
2023/01/06 01:29:42;;;;;;;;;;;;;;;8.55;84.18;98557.31;4977006;28;19933;-62
2023/01/06 01:32:09;;;;;;;;;;;;;;;8.53;84.18;98556.81;4977245;28;19969;-61
2023/01/06 01:34:37;;;;;;;;;;;;;;;8.46;84.56;98553.59;4971582;28;19926;-65
2023/01/06 01:37:05;;;;;;;;;;;;;;;8.58;84.62;98548.66;4990553;28;19929;-62
2023/01/06 01:39:34;;;;;;;;;;;;;;;8.53;84.48;98549.50;4977195;28;19926;-62
2023/01/06 01:42:04;;;;;;;;;;;;;;;8.53;84.48;98548.69;4993707;28;20367;-61
2023/01/06 01:45:00;;;;;;;;;;;;;;;8.50;84.46;98549.22;4976233;28;19926;-61
2023/01/06 01:47:43;;;;;;;;;;;;;;;8.58;84.16;98552.16;4976851;28;19984;-62
2023/01/06 01:50:17;;;;;;;;;;;;;;;8.48;84.53;98548.72;4974725;28;20297;-61
2023/01/06 01:52:45;;;;;;;;;;;;;;;8.44;84.76;98539.53;4995309;28;19948;-67
2023/01/06 01:55:15;;;;;;;;;;;;;;;8.44;84.82;98542.25;4973939;28;19926;-64
2023/01/06 01:57:44;;;;;;;;;;;;;;;8.55;84.49;98536.47;4976584;28;20338;-61
2023/01/06 02:00:14;;;;;;;;;;;;;;;8.52;84.58;98541.63;4977054;28;19941;-63
2023/01/06 02:02:43;;;;;;;;;;;;;;;8.45;84.93;98527.59;5001305;28;19988;-61
2023/01/06 02:05:12;;;;;;;;;;;;;;;8.50;84.62;98535.69;4977027;28;20260;-62
2023/01/06 02:07:41;;;;;;;;;;;;;;;8.46;85.22;98531.94;4978078;28;19925;-62
2023/01/06 02:10:10;;;;;;;;;;;;;;;8.54;84.71;98531.34;4984128;28;19933;-62
2023/01/06 02:12:39;;;;;;;;;;;;;;;8.50;84.62;98525.66;4994158;28;19933;-61
2023/01/06 02:15:15;;;;;;;;;;;;;;;8.50;84.77;98522.16;4993756;28;19930;-62
2023/01/06 02:18:04;;;;;;;;;;;;;;;8.46;85.13;98521.91;4992627;28;19930;-64
2023/01/06 02:20:39;;;;;;;;;;;;;;;8.50;84.95;98517.53;4992147;28;19930;-61
2023/01/06 02:23:26;;;;;;;;;;;;;;;8.50;84.94;98519.44;4974692;28;20406;-66
2023/01/06 02:26:03;;;;;;;;;;;;;;;8.49;85.23;98520.53;4991863;28;20397;-62
2023/01/06 02:28:47;;;;;;;;;;;;;;;8.44;85.95;98523.28;4973621;28;19926;-63
2023/01/06 02:31:30;;;;;;;;;;;;;;;8.53;85.64;98518.91;4974113;28;19927;-62
2023/01/06 02:33:59;;;;;;;;;;;;;;;8.51;85.73;98511.03;4975128;28;19926;-62
2023/01/06 02:36:31;;;;;;;;;;;;;;;8.53;85.64;98511.56;4970105;28;20021;-68
2023/01/06 02:39:08;;;;;;;;;;;;;;;8.52;85.70;98509.13;4991536;28;19925;-62
2023/01/06 02:41:38;;;;;;;;;;;;;;;8.50;85.83;98497.78;4993601;28;19937;-63
2023/01/06 02:44:09;;;;;;;;;;;;;;;8.58;85.85;98500.69;4974684;28;19961;-64
2023/01/06 02:46:43;;;;;;;;;;;;;;;8.51;85.82;98492.06;4975280;28;19926;-63
2023/01/06 02:49:12;;;;;;;;;;;;;;;8.55;85.54;98498.53;4974238;28;20379;-62
2023/01/06 02:51:43;;;;;;;;;;;;;;;8.50;85.81;98497.78;4978125;28;20635;-63
2023/01/06 02:54:14;;;;;;;;;;;;;;;8.53;85.92;98497.22;4975696;28;19926;-63
2023/01/06 02:56:44;;;;;;;;;;;;;;;8.39;86.69;98499.75;4992032;28;19925;-66
2023/01/06 02:59:14;;;;;;;;;;;;;;;8.44;86.65;98498.91;4975333;28;19988;-62
2023/01/06 03:02:08;;;;;;;;;;;;;;;8.53;86.55;98502.66;4988765;28;19925;-64
2023/01/06 03:04:38;;;;;;;;;;;;;;;8.56;86.29;98504.78;4988526;28;19984;-62
2023/01/06 03:07:07;;;;;;;;;;;;;;;8.64;86.08;98496.03;4971817;28;19981;-63
2023/01/06 03:09:38;;;;;;;;;;;;;;;8.54;86.41;98494.22;4977507;28;19984;-63
2023/01/06 03:12:07;;;;;;;;;;;;;;;8.60;86.00;98495.00;4990982;28;19976;-63
2023/01/06 03:14:37;;;;;;;;;;;;;;;8.57;86.50;98492.84;4974208;28;20375;-62
2023/01/06 03:17:08;;;;;;;;;;;;;;;8.59;86.44;98494.19;4974222;28;19972;-62
2023/01/06 03:19:40;;;;;;;;;;;;;;;8.60;86.70;98497.69;4973431;28;19926;-62
2023/01/06 03:22:09;;;;;;;;;;;;;;;8.61;86.61;98492.00;4970595;28;19929;-62
2023/01/06 03:24:37;;;;;;;;;;;;;;;8.58;86.96;98491.78;4991141;28;19949;-62
2023/01/06 03:29:58;;;;;;;;;;;;;;;8.55;86.63;98489.63;4981426;28;19934;-63
2023/01/06 03:32:26;;;;;;;;;;;;;;;8.63;86.85;98489.03;4977835;28;19980;-70
2023/01/06 03:35:04;;;;;;;;;;;;;;;8.62;86.62;98488.19;4978015;28;19933;-65
2023/01/06 03:37:35;;;;;;;;;;;;;;;8.67;86.59;98495.47;4984136;28;19933;-63
2023/01/06 03:40:05;;;;;;;;;;;;;;;8.63;86.79;98489.81;4992237;28;19928;-62
2023/01/06 03:45:25;;;;;;;;;;;;;;;8.73;86.71;98488.91;4972785;28;19930;-62
2023/01/06 03:47:55;;;;;;;;;;;;;;;8.77;86.63;98489.97;4972968;28;19934;-63
2023/01/06 03:50:26;;;;;;;;;;;;;;;8.81;86.44;98492.91;4974030;28;19933;-62
2023/01/06 03:52:58;;;;;;;;;;;;;;;8.75;86.74;98492.16;4974533;28;19976;-61
2023/01/06 03:55:26;;;;;;;;;;;;;;;8.74;86.65;98493.25;4972916;28;19961;-61
2023/01/06 03:57:56;;;;;;;;;;;;;;;8.74;86.81;98487.03;4974499;28;19926;-64
2023/01/06 04:00:25;;;;;;;;;;;;;;;8.82;86.59;98484.50;4964129;28;20022;-61
2023/01/06 04:02:59;;;;;;;;;;;;;;;8.80;86.57;98483.19;4971157;28;19953;-63
2023/01/06 04:05:29;;;;;;;;;;;;;;;8.81;86.82;98485.59;4914825;28;1804951;-61
2023/01/06 04:07:59;;;;;;;;;;;;;;;8.83;86.87;98480.69;4983576;28;20398;-61
2023/01/06 04:10:27;;;;;;;;;;;;;;;8.77;87.28;98473.69;4996976;28;20272;-61
2023/01/06 04:12:57;;;;;;;;;;;;;;;8.81;86.74;98473.94;4973025;28;19929;-67
2023/01/06 04:15:34;;;;;;;;;;;;;;;8.80;86.76;98467.72;4985552;28;20045;-61
2023/01/06 04:18:05;;;;;;;;;;;;;;;8.78;86.99;98467.19;4985503;28;19936;-61
2023/01/06 04:20:38;;;;;;;;;;;;;;;8.71;87.18;98457.78;4972733;28;20355;-61
2023/01/06 04:23:14;;;;;;;;;;;;;;;8.74;87.18;98451.81;4969036;28;19932;-65
2023/01/06 04:25:44;;;;;;;;;;;;;;;8.74;87.25;98449.91;4976236;28;20441;-60
2023/01/06 04:28:28;;;;;;;;;;;;;;;8.75;87.25;98448.00;4984648;28;19926;-60
2023/01/06 04:30:57;;;;;;;;;;;;;;;8.81;86.96;98452.28;4970498;28;20445;-61
2023/01/06 04:33:26;;;;;;;;;;;;;;;8.79;87.36;98444.44;4971988;28;19977;-60
2023/01/06 04:36:00;;;;;;;;;;;;;;;8.81;87.16;98449.56;4975842;28;20020;-60
2023/01/06 04:38:29;;;;;;;;;;;;;;;8.83;87.08;98450.88;4967909;28;19933;-60
2023/01/06 04:40:57;;;;;;;;;;;;;;;8.84;87.27;98440.84;4992376;28;19929;-61
2023/01/06 04:43:26;;;;;;;;;;;;;;;8.85;87.16;98437.88;4973219;28;19957;-61
2023/01/06 04:45:57;;;;;;;;;;;;;;;8.86;86.95;98436.78;4990968;28;19934;-61
2023/01/06 04:48:27;;;;;;;;;;;;;;;8.85;86.92;98437.06;4990691;28;20417;-61
2023/01/06 04:51:04;;;;;;;;;;;;;;;8.83;87.12;98445.47;4995666;28;19995;-61
2023/01/06 04:53:33;;;;;;;;;;;;;;;8.82;87.20;98443.84;4991012;28;19984;-61
2023/01/06 04:56:05;;;;;;;;;;;;;;;8.83;87.23;98445.47;4989549;28;19926;-65
2023/01/06 05:01:25;;;;;;;;;;;;;;;8.87;87.24;98443.78;4991135;28;19933;-61
2023/01/06 05:03:53;;;;;;;;;;;;;;;8.92;86.99;98448.38;4974869;28;20403;-61
2023/01/06 05:06:23;;;;;;;;;;;;;;;8.96;86.85;98437.75;4994370;28;19929;-61
2023/01/06 05:08:50;;;;;;;;;;;;;;;8.92;87.05;98446.47;4998098;28;19930;-61
2023/01/06 05:11:19;;;;;;;;;;;;;;;8.93;87.16;98436.44;4993463;28;19949;-60
2023/01/06 05:14:13;;;;;;;;;;;;;;;8.95;87.09;98431.53;4995145;28;19936;-61
2023/01/06 05:16:41;;;;;;;;;;;;;;;8.97;87.19;98434.75;4993065;28;20012;-61
2023/01/06 05:19:10;;;;;;;;;;;;;;;8.94;87.21;98421.78;4991254;28;19930;-61
2023/01/06 05:21:39;;;;;;;;;;;;;;;8.93;87.02;98422.88;4993426;28;19925;-61
2023/01/06 05:24:09;;;;;;;;;;;;;;;8.95;87.24;98418.00;4993334;28;19933;-61
2023/01/06 05:26:37;;;;;;;;;;;;;;;8.93;87.17;98423.69;4995139;28;19929;-61
2023/01/06 05:29:05;;;;;;;;;;;;;;;8.91;87.47;98425.88;4994790;28;20441;-66
2023/01/06 05:31:33;;;;;;;;;;;;;;;8.95;87.24;98409.88;4994639;28;19934;-64
2023/01/06 05:34:04;;;;;;;;;;;;;;;8.97;86.94;98413.09;4992569;28;19933;-61
2023/01/06 05:36:33;;;;;;;;;;;;;;;8.97;87.09;98414.97;4993889;28;19936;-61
2023/01/06 05:39:05;;;;;;;;;;;;;;;8.96;87.02;98413.38;4991938;28;20402;-64
2023/01/06 05:41:33;;;;;;;;;;;;;;;8.95;86.88;98411.75;4993691;28;19929;-62
2023/01/06 05:44:02;;;;;;;;;;;;;;;8.92;86.98;98400.38;4992369;28;20268;-62
2023/01/06 05:46:30;;;;;;;;;;;;;;;8.88;87.41;98404.75;4995022;28;19925;-63
2023/01/06 05:48:59;;;;;;;;;;;;;;;8.89;87.30;98408.28;4992994;28;19961;-61
2023/01/06 05:51:50;;;;;;;;;;;;;;;8.91;87.37;98408.81;4992728;28;20000;-63
2023/01/06 05:54:21;;;;;;;;;;;;;;;8.94;87.16;98402.81;4993612;28;19941;-61
2023/01/06 05:56:52;;;;;;;;;;;;;;;8.93;87.13;98402.00;4994316;28;19929;-62
2023/01/06 05:59:21;;;;;;;;;;;;;;;8.98;87.18;98403.03;4994714;28;19953;-61
2023/01/06 06:01:49;;;;;;;;;;;;;;;9.01;86.95;98413.31;4992674;28;19933;-61
2023/01/06 06:04:17;;;;;;;;;;;;;;;9.00;86.99;98408.97;4991834;28;19926;-61
2023/01/06 06:06:45;;;;;;;;;;;;;;;8.99;86.80;98401.94;4976598;28;20350;-66
2023/01/06 06:09:15;;;;;;;;;;;;;;;9.01;86.71;98405.19;4976542;28;19976;-63
2023/01/06 06:11:45;;;;;;;;;;;;;;;9.03;86.72;98397.56;4991086;28;19957;-62
2023/01/06 06:14:13;;;;;;;;;;;;;;;9.02;86.85;98394.06;4975875;28;19926;-61
2023/01/06 06:16:43;;;;;;;;;;;;;;;8.99;87.08;98393.81;4989047;28;19933;-62
2023/01/06 06:19:12;;;;;;;;;;;;;;;9.01;86.83;98397.88;4975995;28;20346;-61
2023/01/06 06:21:40;;;;;;;;;;;;;;;9.04;86.68;98410.81;4992725;28;19933;-61
2023/01/06 06:24:09;;;;;;;;;;;;;;;9.06;86.78;98410.56;4991166;28;19932;-61
2023/01/06 06:26:37;;;;;;;;;;;;;;;9.00;86.79;98409.81;4995416;28;19929;-62
2023/01/06 06:29:07;;;;;;;;;;;;;;;9.10;86.54;98414.28;4998617;28;20772;-62
2023/01/06 06:31:35;;;;;;;;;;;;;;;9.11;86.33;98408.59;4994272;28;20327;-62
2023/01/06 06:34:03;;;;;;;;;;;;;;;9.10;86.43;98412.38;4991844;28;19969;-62
2023/01/06 06:36:30;;;;;;;;;;;;;;;9.25;85.91;98418.72;4995878;28;19968;-66
2023/01/06 06:39:00;;;;;;;;;;;;;;;9.22;85.77;98411.97;5000308;28;19933;-61
2023/01/06 06:41:30;;;;;;;;;;;;;;;9.18;85.96;98410.94;4989561;28;19951;-63
2023/01/06 06:43:58;;;;;;;;;;;;;;;9.12;86.13;98410.19;4995087;28;19932;-62
2023/01/06 06:46:28;;;;;;;;;;;;;;;9.09;86.27;98407.25;4993876;28;19926;-66
2023/01/06 06:48:55;;;;;;;;;;;;;;;9.15;86.09;98417.72;4990299;28;19925;-61
2023/01/06 06:51:47;;;;;;;;;;;;;;;9.14;85.90;98415.31;4956104;28;19941;-64
2023/01/06 06:54:17;;;;;;;;;;;;;;;9.21;85.78;98421.19;4992163;28;19938;-63
2023/01/06 06:56:45;;;;;;;;;;;;;;;9.18;85.67;98421.78;4989731;28;19929;-69
2023/01/06 06:59:14;;;;;;;;;;;;;;;9.21;85.62;98425.81;4994218;28;20256;-61
2023/01/06 07:01:43;;;;;;;;;;;;;;;9.28;84.90;98426.28;4975721;28;19926;-63
2023/01/06 07:04:11;;;;;;;;;;;;;;;9.32;84.54;98428.13;4989130;28;19961;-61
2023/01/06 07:06:39;;;;;;;;;;;;;;;9.27;84.49;98430.06;4992654;28;19926;-62
2023/01/06 07:12:00;;;;;;;;;;;;;;;9.38;83.99;98443.22;4990258;28;19926;-61
2023/01/06 07:14:28;;;;;;;;;;;;;;;9.42;84.03;98444.25;4991420;28;19933;-62
2023/01/06 07:16:59;;;;;;;;;;;;;;;9.39;84.11;98444.03;4991144;28;20271;-61
2023/01/06 07:19:27;;;;;;;;;;;;;;;9.36;83.76;98442.69;4973756;28;19926;-64
2023/01/06 07:21:55;;;;;;;;;;;;;;;9.36;83.74;98437.28;4991776;28;19934;-61
2023/01/06 07:24:23;;;;;;;;;;;;;;;9.47;83.49;98442.56;4990366;28;20273;-61
2023/01/06 07:26:56;;;;;;;;;;;;;;;9.45;83.41;98446.38;4997669;28;19930;-63
2023/01/06 07:29:24;;;;;;;;;;;;;;;9.41;83.48;98453.47;4991448;28;19934;-61
2023/01/06 07:31:52;;;;;;;;;;;;;;;9.44;83.38;98450.19;4974002;28;19940;-70
2023/01/06 07:34:21;;;;;;;;;;;;;;;9.46;83.01;98447.19;4995861;28;19926;-68
2023/01/06 07:36:49;;;;;;;;;;;;;;;9.54;83.06;98453.91;4996048;28;19926;-61
2023/01/06 07:39:17;;;;;;;;;;;;;;;9.59;82.73;98457.34;4980551;28;20013;-63
2023/01/06 07:41:45;;;;;;;;;;;;;;;9.65;82.56;98458.09;4978656;28;19967;-66
2023/01/06 07:44:14;;;;;;;;;;;;;;;9.67;82.03;98453.16;4994085;28;19925;-63
2023/01/06 07:46:44;;;;;;;;;;;;;;;9.62;82.39;98454.03;4975698;28;19926;-62
2023/01/06 07:49:18;;;;;;;;;;;;;;;9.68;82.39;98457.47;4991952;28;20382;-62
2023/01/06 07:51:48;;;;;;;;;;;;;;;9.66;82.07;98454.25;4991683;28;19925;-61
2023/01/06 07:54:18;;;;;;;;;;;;;;;9.74;81.73;98463.66;4988891;28;20006;-61
2023/01/06 07:56:46;;;;;;;;;;;;;;;9.77;81.48;98463.88;4990263;28;19933;-61
2023/01/06 07:59:14;;;;;;;;;;;;;;;9.69;81.89;98457.22;4991041;28;19926;-61
2023/01/06 08:01:42;;;;;;;;;;;;;;;9.75;81.82;98463.38;4990232;28;19926;-65
2023/01/06 08:04:10;;;;;;;;;;;;;;;9.72;81.88;98450.38;4990806;28;19926;-62
2023/01/06 08:06:39;;;;;;;;;;;;;;;9.79;81.93;98447.28;4978247;28;19934;-65
2023/01/06 08:12:00;;;;;;;;;;;;;;;9.70;81.86;98455.31;4989906;28;19937;-67
2023/01/06 08:14:28;;;;;;;;;;;;;;;9.75;81.49;98455.22;4990563;28;20038;-67
2023/01/06 08:16:59;;;;;;;;;;;;;;;9.87;81.23;98458.31;4990632;28;19941;-67
2023/01/06 08:19:27;;;;;;;;;;;;;;;9.87;81.13;98452.09;4988538;28;19929;-66
2023/01/06 08:21:54;;;;;;;;;;;;;;;9.95;80.75;98452.22;4991201;28;20360;-67
2023/01/06 08:24:24;;;;;;;;;;;;;;;9.95;80.46;98457.63;4990853;28;19926;-66
2023/01/06 08:26:56;;;;;;;;;;;;;;;10.00;80.26;98456.75;4988736;28;19936;-67
2023/01/06 08:29:24;;;;;;;;;;;;;;;9.89;80.98;98461.53;4973485;28;19933;-67
2023/01/06 08:31:52;;;;;;;;;;;;;;;9.95;81.23;98454.91;4989876;28;19929;-67
2023/01/06 08:34:32;;;;;;;;;;;;;;;10.04;80.66;98465.13;4969723;28;19941;-66
2023/01/06 08:37:00;;;;;;;;;;;;;;;10.03;80.43;98460.81;4987359;28;19933;-67
2023/01/06 08:39:29;;;;;;;;;;;;;;;10.03;80.87;98455.38;4988044;28;19925;-68
2023/01/06 08:41:58;;;;;;;;;;;;;;;10.04;80.62;98451.56;4976566;28;20020;-67
2023/01/06 08:44:26;;;;;;;;;;;;;;;10.05;81.16;98442.31;4990027;28;19930;-67
2023/01/06 08:46:54;;;;;;;;;;;;;;;10.17;80.43;98440.78;4967721;28;20295;-66
2023/01/06 08:49:22;;;;;;;;;;;;;;;10.18;80.53;98438.88;4989502;28;20031;-66
2023/01/06 08:54:44;;;;;;;;;;;;;;;10.23;80.58;98457.78;4987976;28;19929;-66
2023/01/06 08:57:14;;;;;;;;;;;;;;;10.25;80.62;98463.75;4971178;28;19926;-66
2023/01/06 08:59:42;;;;;;;;;;;;;;;10.40;80.08;98460.81;4992057;28;19932;-66
2023/01/06 09:02:10;;;;;;;;;;;;;;;10.33;80.12;98459.56;4991447;28;19930;-66
2023/01/06 09:04:38;;;;;;;;;;;;;;;10.36;80.25;98459.78;4990614;28;19926;-66
2023/01/06 09:07:06;;;;;;;;;;;;;;;10.35;79.22;98469.03;4972375;28;19979;-66
2023/01/06 09:09:36;;;;;;;;;;;;;;;10.34;79.17;98483.72;4987296;28;19934;-65
2023/01/06 09:12:06;;;;;;;;;;;;;;;10.32;79.61;98480.47;4985584;28;19953;-66
2023/01/06 09:14:35;;;;;;;;;;;;;;;10.34;79.95;98483.72;4970375;28;19984;-66
2023/01/06 09:17:03;;;;;;;;;;;;;;;10.42;79.60;98479.50;4987506;28;19926;-66
2023/01/06 09:19:32;;;;;;;;;;;;;;;10.45;79.93;98490.59;4988098;28;19926;-66
2023/01/06 09:22:00;;;;;;;;;;;;;;;10.54;79.32;98487.19;4985927;28;19926;-66
2023/01/06 09:24:28;;;;;;;;;;;;;;;10.44;79.56;98488.19;4985155;28;19933;-66
2023/01/06 09:26:56;;;;;;;;;;;;;;;10.56;79.62;98487.72;4987052;28;20051;-67
2023/01/06 09:29:25;;;;;;;;;;;;;;;10.58;79.37;98497.16;4989080;28;20391;-67
2023/01/06 09:31:53;;;;;;;;;;;;;;;10.61;78.50;98502.03;4987479;28;19933;-67
2023/01/06 09:34:21;;;;;;;;;;;;;;;10.56;78.89;98496.69;4987290;28;19953;-66
2023/01/06 09:36:49;;;;;;;;;;;;;;;10.46;79.27;98505.78;4987201;28;19926;-66
2023/01/06 09:39:17;;;;;;;;;;;;;;;10.39;79.95;98512.72;4990789;28;19930;-66
2023/01/06 09:41:53;;;;;;;;;;;;;;;10.36;80.42;98518.72;4990669;28;20383;-66
2023/01/06 09:44:22;;;;;;;;;;;;;;;10.37;80.43;98514.91;4990228;28;19988;-67
2023/01/06 09:46:52;;;;;;;;;;;;;;;10.26;80.86;98513.44;4989179;28;19930;-66
2023/01/06 09:49:24;;;;;;;;;;;;;;;10.33;80.33;98513.88;4990363;28;19926;-67
2023/01/06 09:51:52;;;;;;;;;;;;;;;10.42;79.33;98512.09;4993133;28;19937;-67
2023/01/06 09:54:23;;;;;;;;;;;;;;;10.51;78.07;98510.34;4979333;28;19933;-67
2023/01/06 09:57:00;;;;;;;;;;;;;;;10.59;77.59;98506.13;4992771;28;20040;-66
2023/01/06 09:59:30;;;;;;;;;;;;;;;10.62;77.52;98505.56;4975154;28;19925;-67
2023/01/06 10:02:00;;;;;;;;;;;;;;;10.74;76.50;98503.16;4993066;28;19965;-66
2023/01/06 10:04:29;;;;;;;;;;;;;;;10.76;76.30;98509.13;4976209;28;19944;-66
2023/01/06 10:07:00;;;;;;;;;;;;;;;10.78;76.38;98506.91;4992260;28;19930;-66
2023/01/06 10:09:29;;;;;;;;;;;;;;;10.82;76.07;98501.69;4993412;28;19933;-65
2023/01/06 10:12:00;;;;;;;;;;;;;;;10.78;76.57;98493.31;4992066;28;20383;-65
2023/01/06 10:14:32;;;;;;;;;;;;;;;10.89;75.50;98488.50;4992875;28;19925;-67
2023/01/06 10:17:16;;;;;;;;;;;;;;;11.02;75.49;98485.81;4974936;28;19929;-66
2023/01/06 10:19:48;;;;;;;;;;;;;;;11.11;74.05;98485.91;4974972;28;19940;-66
2023/01/06 10:22:17;;;;;;;;;;;;;;;11.04;73.76;98473.84;4990354;28;19926;-67
2023/01/06 10:25:10;;;;;;;;;;;;;;;10.99;74.13;98480.19;4989476;28;19926;-66
2023/01/06 10:27:39;;;;;;;;;;;;;;;11.02;73.12;98463.25;4975864;28;19933;-66
2023/01/06 10:30:14;;;;;;;;;;;;;;;10.97;73.15;98463.34;4994514;28;19941;-66
2023/01/06 10:33:07;;;;;;;;;;;;;;;10.91;72.87;98457.19;4991436;28;19934;-66
2023/01/06 10:35:36;;;;;;;;;;;;;;;10.94;72.69;98459.31;4990229;28;20021;-65
2023/01/06 10:38:05;;;;;;;;;;;;;;;10.89;72.67;98458.59;4975118;28;20387;-67
2023/01/06 10:40:35;;;;;;;;;;;;;;;10.89;73.09;98453.97;4970218;28;19926;-65
2023/01/06 10:43:05;;;;;;;;;;;;;;;10.88;72.73;98448.84;4992719;28;19983;-66
2023/01/06 10:45:34;;;;;;;;;;;;;;;10.91;72.87;98448.22;4990285;28;19925;-68
2023/01/06 10:48:02;;;;;;;;;;;;;;;10.95;72.75;98452.78;4993403;28;19930;-67
2023/01/06 10:50:30;;;;;;;;;;;;;;;10.98;72.75;98451.38;4992982;28;20366;-66
2023/01/06 10:53:00;;;;;;;;;;;;;;;10.98;71.74;98449.47;4992767;28;20347;-68
2023/01/06 11:01:48;;;;;;;;;;;;;;;10.82;72.56;98450.84;4991484;28;20405;-69
2023/01/06 11:04:18;;;;;;;;;;;;;;;10.91;70.71;98449.03;4989902;28;20017;-68
2023/01/06 11:12:37;;;;;;;;;;;;;;;10.93;69.52;98456.91;4990928;28;19929;-68
2023/01/06 11:15:16;;;;;;;;;;;;;;;10.92;69.46;98458.81;4990407;28;19968;-68
2023/01/06 11:17:46;;;;;;;;;;;;;;;10.85;69.19;98450.25;4989149;28;19965;-67
2023/01/06 11:20:27;;;;;;;;;;;;;;;10.74;70.04;98448.81;4974298;28;19949;-68
2023/01/06 11:22:56;;;;;;;;;;;;;;;10.73;70.22;98452.63;4991580;28;19933;-68
2023/01/06 11:25:29;;;;;;;;;;;;;;;10.73;70.33;98460.78;4993073;28;19933;-68
2023/01/06 11:28:14;;;;;;;;;;;;;;;10.65;70.15;98459.56;4985628;28;19926;-69
2023/01/06 11:30:44;;;;;;;;;;;;;;;10.54;69.13;98454.59;4995595;28;19926;-68
2023/01/06 11:33:16;;;;;;;;;;;;;;;10.44;69.95;98456.41;4994725;28;19929;-67
2023/01/06 11:35:47;;;;;;;;;;;;;;;10.44;67.81;98480.03;4995498;28;19926;-67
2023/01/06 11:38:16;;;;;;;;;;;;;;;10.41;67.09;98456.97;4994027;28;19933;-69
2023/01/06 11:40:47;;;;;;;;;;;;;;;10.35;67.40;98458.16;4992651;28;20272;-66
2023/01/06 11:43:16;;;;;;;;;;;;;;;10.31;67.03;98459.84;4991415;28;19925;-68
2023/01/06 11:45:45;;;;;;;;;;;;;;;10.35;66.94;98458.16;4992741;28;19925;-69
2023/01/06 11:48:14;;;;;;;;;;;;;;;10.41;67.16;98459.69;4993063;28;20367;-67
2023/01/06 11:50:49;;;;;;;;;;;;;;;10.33;67.62;98462.25;4990853;28;20092;-68
2023/01/06 11:53:20;;;;;;;;;;;;;;;10.37;67.68;98453.22;4989510;28;20375;-68
2023/01/06 11:56:17;;;;;;;;;;;;;;;10.32;67.73;98456.03;4991802;28;19925;-68
2023/01/06 12:01:41;;;;;;;;;;;;;;;10.26;67.78;98457.22;4991189;28;19960;-68
2023/01/06 12:04:12;;;;;;;;;;;;;;;10.28;67.62;98452.31;4991127;28;19930;-68
2023/01/06 12:06:41;;;;;;;;;;;;;;;10.17;68.08;98459.78;4990599;28;19932;-68
2023/01/06 12:09:16;;;;;;;;;;;;;;;10.20;68.30;98461.09;4976557;28;19934;-68
2023/01/06 12:11:47;;;;;;;;;;;;;;;10.19;68.20;98470.34;4992756;28;19930;-68
2023/01/06 12:14:16;;;;;;;;;;;;;;;10.12;67.49;98459.84;4975476;28;20438;-68
2023/01/06 12:16:58;;;;;;;;;;;;;;;10.19;67.86;98456.75;4991765;28;19929;-68
2023/01/06 12:19:29;;;;;;;;;;;;;;;10.18;68.14;98452.44;4991918;28;19926;-68
2023/01/06 12:21:57;;;;;;;;;;;;;;;10.14;67.43;98452.22;4991574;28;19926;-68
2023/01/06 12:24:25;;;;;;;;;;;;;;;10.10;68.19;98463.94;4991328;28;19941;-69
2023/01/06 12:26:55;;;;;;;;;;;;;;;10.12;68.26;98459.03;4990468;28;19926;-69
2023/01/06 12:29:24;;;;;;;;;;;;;;;10.06;68.55;98455.56;4992527;28;19933;-68
2023/01/06 12:31:55;;;;;;;;;;;;;;;10.11;68.38;98457.41;4991850;28;19942;-69
2023/01/06 12:34:24;;;;;;;;;;;;;;;10.19;68.42;98457.56;4990423;28;19926;-68
2023/01/06 12:36:53;;;;;;;;;;;;;;;10.22;67.99;98448.00;4977147;28;20469;-68
2023/01/06 12:39:23;;;;;;;;;;;;;;;10.32;67.39;98431.59;4991863;28;19926;-67
2023/01/06 12:41:52;;;;;;;;;;;;;;;10.28;67.42;98432.47;4974728;28;19930;-68
2023/01/06 12:44:27;;;;;;;;;;;;;;;10.25;67.65;98425.75;4974098;28;19997;-66
2023/01/06 12:46:57;;;;;;;;;;;;;;;10.30;67.33;98422.94;4991590;28;20387;-66
2023/01/06 12:49:28;;;;;;;;;;;;;;;10.34;67.06;98423.16;4991888;28;19933;-69
2023/01/06 12:51:56;;;;;;;;;;;;;;;10.32;67.18;98419.91;4991502;28;19933;-66
2023/01/06 12:54:25;;;;;;;;;;;;;;;10.34;67.06;98413.09;4992588;28;19930;-68
2023/01/06 12:56:57;;;;;;;;;;;;;;;10.30;66.61;98408.56;4976302;28;20381;-68
2023/01/06 12:59:29;;;;;;;;;;;;;;;10.37;65.93;98412.50;4991278;28;19926;-69
2023/01/06 13:02:00;;;;;;;;;;;;;;;10.31;66.37;98405.53;4974529;28;19937;-68
2023/01/06 13:04:36;;;;;;;;;;;;;;;10.36;65.61;98410.88;4991117;28;19933;-68
2023/01/06 13:07:08;;;;;;;;;;;;;;;10.29;66.32;98398.81;4991040;28;20286;-66
2023/01/06 13:09:40;;;;;;;;;;;;;;;10.30;66.00;98401.22;4990890;28;19926;-69
2023/01/06 13:12:26;;;;;;;;;;;;;;;10.31;65.15;98396.59;4990281;28;19929;-68
2023/01/06 13:14:56;;;;;;;;;;;;;;;10.31;66.09;98393.88;4986709;28;19961;-68
2023/01/06 13:17:52;;;;;;;;;;;;;;;10.36;64.67;98405.44;4990605;28;19941;-68
2023/01/06 13:20:21;;;;;;;;;;;;;;;10.35;64.85;98408.47;4990975;28;19937;-69
2023/01/06 13:22:52;;;;;;;;;;;;;;;10.36;65.08;98393.78;4973257;28;19934;-69
2023/01/06 13:25:26;;;;;;;;;;;;;;;10.38;64.13;98405.94;4994313;28;19930;-69
2023/01/06 13:28:05;;;;;;;;;;;;;;;10.34;64.12;98407.66;4993779;28;19926;-69
2023/01/06 13:30:47;;;;;;;;;;;;;;;10.38;63.80;98405.16;4975532;28;19926;-69
2023/01/06 13:33:21;;;;;;;;;;;;;;;10.30;63.74;98412.06;4994209;28;19926;-69
2023/01/06 13:35:58;;;;;;;;;;;;;;;10.24;64.16;98413.28;4991388;28;19932;-69
2023/01/06 13:41:29;;;;;;;;;;;;;;;10.22;64.16;98427.09;4991807;28;19930;-71
2023/01/06 13:43:58;;;;;;;;;;;;;;;10.10;64.42;98431.38;4994515;28;19965;-70
2023/01/06 13:46:28;;;;;;;;;;;;;;;10.14;64.89;98427.78;4974991;28;19926;-69
2023/01/06 13:48:58;;;;;;;;;;;;;;;10.08;64.87;98423.53;4991081;28;19926;-70
2023/01/06 13:51:27;;;;;;;;;;;;;;;10.07;64.94;98443.66;4991009;28;20362;-69
2023/01/06 13:53:55;;;;;;;;;;;;;;;10.07;65.16;98431.97;4992378;28;19933;-69